sensor_id;sensor_type;location;lat;lon;timestamp;temperature;humidity
67559;DHT22;54388;53.536;49.300;2023-04-15T00:01:39;2.00;25.30
67559;DHT22;54388;53.536;49.300;2023-04-15T00:04:06;2.00;25.30
67559;DHT22;54388;53.536;49.300;2023-04-15T00:06:32;2.00;25.30
67559;DHT22;54388;53.536;49.300;2023-04-15T00:08:59;2.00;25.40
67559;DHT22;54388;53.536;49.300;2023-04-15T00:11:25;2.00;26.30
67559;DHT22;54388;53.536;49.300;2023-04-15T00:13:52;1.90;25.50
67559;DHT22;54388;53.536;49.300;2023-04-15T00:16:19;1.90;25.60
67559;DHT22;54388;53.536;49.300;2023-04-15T00:18:46;1.80;25.70
67559;DHT22;54388;53.536;49.300;2023-04-15T00:21:12;1.80;25.70
67559;DHT22;54388;53.536;49.300;2023-04-15T00:23:39;1.80;25.80
67559;DHT22;54388;53.536;49.300;2023-04-15T00:26:06;1.70;25.90
67559;DHT22;54388;53.536;49.300;2023-04-15T00:28:32;1.70;25.90
67559;DHT22;54388;53.536;49.300;2023-04-15T00:30:59;1.70;26.00
67559;DHT22;54388;53.536;49.300;2023-04-15T00:33:26;1.70;26.00
67559;DHT22;54388;53.536;49.300;2023-04-15T00:35:52;1.70;26.10
67559;DHT22;54388;53.536;49.300;2023-04-15T00:38:19;1.70;26.10
67559;DHT22;54388;53.536;49.300;2023-04-15T00:40:45;1.60;26.10
67559;DHT22;54388;53.536;49.300;2023-04-15T00:43:11;1.60;26.10
67559;DHT22;54388;53.536;49.300;2023-04-15T00:45:38;1.60;26.10
67559;DHT22;54388;53.536;49.300;2023-04-15T00:48:04;1.60;26.20
67559;DHT22;54388;53.536;49.300;2023-04-15T00:50:31;1.50;26.30
67559;DHT22;54388;53.536;49.300;2023-04-15T00:52:58;1.50;26.30
67559;DHT22;54388;53.536;49.300;2023-04-15T00:55:24;1.50;26.30
67559;DHT22;54388;53.536;49.300;2023-04-15T00:57:51;1.40;26.40
67559;DHT22;54388;53.536;49.300;2023-04-15T01:00:19;1.40;26.50
67559;DHT22;54388;53.536;49.300;2023-04-15T01:02:46;1.40;26.50
67559;DHT22;54388;53.536;49.300;2023-04-15T01:05:12;1.40;26.60
67559;DHT22;54388;53.536;49.300;2023-04-15T01:07:39;1.30;26.60
67559;DHT22;54388;53.536;49.300;2023-04-15T01:10:06;1.30;26.60
67559;DHT22;54388;53.536;49.300;2023-04-15T01:12:33;1.30;27.50
67559;DHT22;54388;53.536;49.300;2023-04-15T01:15:01;1.20;26.70
67559;DHT22;54388;53.536;49.300;2023-04-15T01:17:27;1.20;26.80
67559;DHT22;54388;53.536;49.300;2023-04-15T01:19:55;1.20;26.90
67559;DHT22;54388;53.536;49.300;2023-04-15T01:22:24;1.10;26.90
67559;DHT22;54388;53.536;49.300;2023-04-15T01:25:02;1.10;26.90
67559;DHT22;54388;53.536;49.300;2023-04-15T01:27:31;1.10;26.90
67559;DHT22;54388;53.536;49.300;2023-04-15T01:29:59;1.10;27.00
67559;DHT22;54388;53.536;49.300;2023-04-15T01:32:25;1.10;27.10
67559;DHT22;54388;53.536;49.300;2023-04-15T01:34:52;1.10;27.20
67559;DHT22;54388;53.536;49.300;2023-04-15T01:37:19;1.10;27.10
67559;DHT22;54388;53.536;49.300;2023-04-15T01:39:45;1.10;27.20
67559;DHT22;54388;53.536;49.300;2023-04-15T01:42:12;1.00;27.20
67559;DHT22;54388;53.536;49.300;2023-04-15T01:44:38;1.00;27.20
67559;DHT22;54388;53.536;49.300;2023-04-15T01:47:05;1.00;27.20
67559;DHT22;54388;53.536;49.300;2023-04-15T01:49:31;1.00;27.30
67559;DHT22;54388;53.536;49.300;2023-04-15T01:51:58;1.00;27.30
67559;DHT22;54388;53.536;49.300;2023-04-15T01:54:25;1.00;27.30
67559;DHT22;54388;53.536;49.300;2023-04-15T01:56:52;1.00;27.30
67559;DHT22;54388;53.536;49.300;2023-04-15T01:59:19;1.00;27.30
67559;DHT22;54388;53.536;49.300;2023-04-15T02:01:46;1.00;27.30
67559;DHT22;54388;53.536;49.300;2023-04-15T02:04:12;1.00;27.30
67559;DHT22;54388;53.536;49.300;2023-04-15T02:06:42;1.00;27.40
67559;DHT22;54388;53.536;49.300;2023-04-15T02:09:09;1.00;27.40
67559;DHT22;54388;53.536;49.300;2023-04-15T02:11:36;1.00;27.60
67559;DHT22;54388;53.536;49.300;2023-04-15T02:14:03;1.00;27.50
67559;DHT22;54388;53.536;49.300;2023-04-15T02:16:31;0.90;28.30
67559;DHT22;54388;53.536;49.300;2023-04-15T02:18:59;0.90;27.60
67559;DHT22;54388;53.536;49.300;2023-04-15T02:21:26;0.90;27.60
67559;DHT22;54388;53.536;49.300;2023-04-15T02:23:52;0.90;27.80
67559;DHT22;54388;53.536;49.300;2023-04-15T02:26:22;0.90;27.90
67559;DHT22;54388;53.536;49.300;2023-04-15T02:28:50;0.90;27.90
67559;DHT22;54388;53.536;49.300;2023-04-15T02:31:16;1.00;27.90
67559;DHT22;54388;53.536;49.300;2023-04-15T02:33:43;1.10;27.80
67559;DHT22;54388;53.536;49.300;2023-04-15T02:36:09;1.30;27.70
67559;DHT22;54388;53.536;49.300;2023-04-15T02:38:37;1.40;27.60
67559;DHT22;54388;53.536;49.300;2023-04-15T02:41:05;1.60;27.50
67559;DHT22;54388;53.536;49.300;2023-04-15T02:43:32;1.70;27.30
67559;DHT22;54388;53.536;49.300;2023-04-15T02:45:58;1.90;27.20
67559;DHT22;54388;53.536;49.300;2023-04-15T02:48:24;2.10;27.00
67559;DHT22;54388;53.536;49.300;2023-04-15T02:50:51;2.30;26.90
67559;DHT22;54388;53.536;49.300;2023-04-15T02:53:17;2.50;26.70
67559;DHT22;54388;53.536;49.300;2023-04-15T02:55:44;2.80;26.40
67559;DHT22;54388;53.536;49.300;2023-04-15T02:58:11;3.00;26.20
67559;DHT22;54388;53.536;49.300;2023-04-15T03:00:37;3.10;26.00
67559;DHT22;54388;53.536;49.300;2023-04-15T03:03:05;3.30;25.70
67559;DHT22;54388;53.536;49.300;2023-04-15T03:05:31;3.50;25.60
67559;DHT22;54388;53.536;49.300;2023-04-15T03:07:58;3.60;25.40
67559;DHT22;54388;53.536;49.300;2023-04-15T03:10:26;3.70;25.20
67559;DHT22;54388;53.536;49.300;2023-04-15T03:12:52;4.00;25.00
67559;DHT22;54388;53.536;49.300;2023-04-15T03:15:19;4.10;24.90
67559;DHT22;54388;53.536;49.300;2023-04-15T03:17:45;4.30;24.60
67559;DHT22;54388;53.536;49.300;2023-04-15T03:20:14;4.50;24.40
67559;DHT22;54388;53.536;49.300;2023-04-15T03:22:40;4.70;24.20
67559;DHT22;54388;53.536;49.300;2023-04-15T03:25:07;4.90;24.00
67559;DHT22;54388;53.536;49.300;2023-04-15T03:27:33;5.10;23.80
67559;DHT22;54388;53.536;49.300;2023-04-15T03:30:00;5.40;23.60
67559;DHT22;54388;53.536;49.300;2023-04-15T03:32:26;5.60;23.30
67559;DHT22;54388;53.536;49.300;2023-04-15T03:34:53;5.70;23.00
67559;DHT22;54388;53.536;49.300;2023-04-15T03:37:19;5.80;23.00
67559;DHT22;54388;53.536;49.300;2023-04-15T03:39:46;5.90;22.80
67559;DHT22;54388;53.536;49.300;2023-04-15T03:42:12;6.10;22.50
67559;DHT22;54388;53.536;49.300;2023-04-15T03:44:39;6.20;22.40
67559;DHT22;54388;53.536;49.300;2023-04-15T03:47:05;6.30;22.30
67559;DHT22;54388;53.536;49.300;2023-04-15T03:49:32;6.40;22.00
67559;DHT22;54388;53.536;49.300;2023-04-15T03:51:59;6.50;21.90
67559;DHT22;54388;53.536;49.300;2023-04-15T03:54:25;6.70;21.80
67559;DHT22;54388;53.536;49.300;2023-04-15T03:56:52;6.80;21.60
67559;DHT22;54388;53.536;49.300;2023-04-15T03:59:18;6.90;21.50
67559;DHT22;54388;53.536;49.300;2023-04-15T04:01:45;7.10;21.40
67559;DHT22;54388;53.536;49.300;2023-04-15T04:04:12;7.20;21.20
67559;DHT22;54388;53.536;49.300;2023-04-15T04:06:38;7.20;21.00
67559;DHT22;54388;53.536;49.300;2023-04-15T04:09:04;7.20;21.00
67559;DHT22;54388;53.536;49.300;2023-04-15T04:11:31;7.10;20.90
67559;DHT22;54388;53.536;49.300;2023-04-15T04:13:58;7.20;21.10
67559;DHT22;54388;53.536;49.300;2023-04-15T04:16:25;7.30;21.00
67559;DHT22;54388;53.536;49.300;2023-04-15T04:18:52;7.40;20.80
67559;DHT22;54388;53.536;49.300;2023-04-15T04:21:19;7.40;20.80
67559;DHT22;54388;53.536;49.300;2023-04-15T04:23:46;7.40;20.90
67559;DHT22;54388;53.536;49.300;2023-04-15T04:26:13;7.50;21.00
67559;DHT22;54388;53.536;49.300;2023-04-15T04:28:39;7.50;20.80
67559;DHT22;54388;53.536;49.300;2023-04-15T04:31:06;7.60;20.80
67559;DHT22;54388;53.536;49.300;2023-04-15T04:33:33;7.70;20.80
67559;DHT22;54388;53.536;49.300;2023-04-15T04:35:59;7.80;20.70
67559;DHT22;54388;53.536;49.300;2023-04-15T04:38:26;7.90;20.60
67559;DHT22;54388;53.536;49.300;2023-04-15T04:40:53;8.10;20.70
67559;DHT22;54388;53.536;49.300;2023-04-15T04:43:19;8.30;20.60
67559;DHT22;54388;53.536;49.300;2023-04-15T04:45:46;8.60;20.30
67559;DHT22;54388;53.536;49.300;2023-04-15T04:48:12;8.80;20.00
67559;DHT22;54388;53.536;49.300;2023-04-15T04:50:39;9.00;19.70
67559;DHT22;54388;53.536;49.300;2023-04-15T04:53:05;9.10;19.60
67559;DHT22;54388;53.536;49.300;2023-04-15T04:55:32;9.20;19.50
67559;DHT22;54388;53.536;49.300;2023-04-15T04:58:02;9.20;19.30
67559;DHT22;54388;53.536;49.300;2023-04-15T05:00:28;9.10;19.30
67559;DHT22;54388;53.536;49.300;2023-04-15T05:02:56;9.00;19.50
67559;DHT22;54388;53.536;49.300;2023-04-15T05:08:33;9.00;19.50
67559;DHT22;54388;53.536;49.300;2023-04-15T05:10:59;9.00;19.40
67559;DHT22;54388;53.536;49.300;2023-04-15T05:13:26;8.90;19.30
67559;DHT22;54388;53.536;49.300;2023-04-15T05:15:52;8.90;19.20
67559;DHT22;54388;53.536;49.300;2023-04-15T05:18:19;8.90;19.30
67559;DHT22;54388;53.536;49.300;2023-04-15T05:20:46;8.80;19.40
67559;DHT22;54388;53.536;49.300;2023-04-15T05:23:15;8.80;19.60
67559;DHT22;54388;53.536;49.300;2023-04-15T05:25:42;8.80;19.50
67559;DHT22;54388;53.536;49.300;2023-04-15T05:28:09;8.80;19.50
67559;DHT22;54388;53.536;49.300;2023-04-15T05:30:36;8.80;19.40
67559;DHT22;54388;53.536;49.300;2023-04-15T05:33:03;8.80;19.40
67559;DHT22;54388;53.536;49.300;2023-04-15T05:35:30;8.90;19.40
67559;DHT22;54388;53.536;49.300;2023-04-15T05:37:56;9.00;19.30
67559;DHT22;54388;53.536;49.300;2023-04-15T05:40:23;9.10;19.30
67559;DHT22;54388;53.536;49.300;2023-04-15T05:42:49;9.20;19.30
67559;DHT22;54388;53.536;49.300;2023-04-15T05:45:16;9.20;19.10
67559;DHT22;54388;53.536;49.300;2023-04-15T05:47:42;9.20;18.90
67559;DHT22;54388;53.536;49.300;2023-04-15T05:50:09;9.20;19.00
67559;DHT22;54388;53.536;49.300;2023-04-15T05:52:36;9.20;19.00
67559;DHT22;54388;53.536;49.300;2023-04-15T05:55:03;9.30;19.10
67559;DHT22;54388;53.536;49.300;2023-04-15T05:57:29;9.40;19.00
67559;DHT22;54388;53.536;49.300;2023-04-15T05:59:56;9.40;18.90
67559;DHT22;54388;53.536;49.300;2023-04-15T06:02:23;9.60;18.90
67559;DHT22;54388;53.536;49.300;2023-04-15T06:04:50;9.70;18.70
67559;DHT22;54388;53.536;49.300;2023-04-15T06:07:17;9.90;18.50
67559;DHT22;54388;53.536;49.300;2023-04-15T06:09:44;10.00;18.30
67559;DHT22;54388;53.536;49.300;2023-04-15T06:12:11;10.00;18.20
67559;DHT22;54388;53.536;49.300;2023-04-15T06:14:38;10.10;18.20
67559;DHT22;54388;53.536;49.300;2023-04-15T06:17:05;10.30;18.10
67559;DHT22;54388;53.536;49.300;2023-04-15T06:19:33;10.50;18.00
67559;DHT22;54388;53.536;49.300;2023-04-15T06:22:00;10.60;18.00
67559;DHT22;54388;53.536;49.300;2023-04-15T06:24:27;10.70;18.70
67559;DHT22;54388;53.536;49.300;2023-04-15T06:26:54;10.90;17.90
67559;DHT22;54388;53.536;49.300;2023-04-15T06:29:20;11.10;17.80
67559;DHT22;54388;53.536;49.300;2023-04-15T06:31:53;11.30;17.70
67559;DHT22;54388;53.536;49.300;2023-04-15T06:34:21;11.50;17.50
67559;DHT22;54388;53.536;49.300;2023-04-15T06:36:48;11.60;17.10
67559;DHT22;54388;53.536;49.300;2023-04-15T06:39:14;11.80;16.90
67559;DHT22;54388;53.536;49.300;2023-04-15T06:41:41;12.00;16.90
67559;DHT22;54388;53.536;49.300;2023-04-15T06:44:08;12.30;16.70
67559;DHT22;54388;53.536;49.300;2023-04-15T06:46:34;12.60;16.80
67559;DHT22;54388;53.536;49.300;2023-04-15T06:49:01;12.80;16.70
67559;DHT22;54388;53.536;49.300;2023-04-15T06:51:28;13.00;17.20
67559;DHT22;54388;53.536;49.300;2023-04-15T06:53:55;13.10;16.30
67559;DHT22;54388;53.536;49.300;2023-04-15T06:56:22;13.20;16.00
67559;DHT22;54388;53.536;49.300;2023-04-15T06:58:48;13.20;15.90
67559;DHT22;54388;53.536;49.300;2023-04-15T07:01:15;13.20;15.90
67559;DHT22;54388;53.536;49.300;2023-04-15T07:03:42;13.30;15.80
67559;DHT22;54388;53.536;49.300;2023-04-15T07:06:08;13.30;15.80
67559;DHT22;54388;53.536;49.300;2023-04-15T07:08:35;13.30;15.70
67559;DHT22;54388;53.536;49.300;2023-04-15T07:11:02;13.40;15.80
67559;DHT22;54388;53.536;49.300;2023-04-15T07:13:30;13.50;15.70
67559;DHT22;54388;53.536;49.300;2023-04-15T07:15:57;13.60;15.60
67559;DHT22;54388;53.536;49.300;2023-04-15T07:18:24;13.60;15.30
67559;DHT22;54388;53.536;49.300;2023-04-15T07:20:51;13.70;15.20
67559;DHT22;54388;53.536;49.300;2023-04-15T07:23:17;13.70;15.20
67559;DHT22;54388;53.536;49.300;2023-04-15T07:25:44;13.80;15.20
67559;DHT22;54388;53.536;49.300;2023-04-15T07:28:11;14.00;15.10
67559;DHT22;54388;53.536;49.300;2023-04-15T07:30:37;14.20;14.80
67559;DHT22;54388;53.536;49.300;2023-04-15T07:33:05;14.40;14.70
67559;DHT22;54388;53.536;49.300;2023-04-15T07:35:32;14.60;14.60
67559;DHT22;54388;53.536;49.300;2023-04-15T07:37:58;14.80;14.60
67559;DHT22;54388;53.536;49.300;2023-04-15T07:40:25;15.10;14.50
67559;DHT22;54388;53.536;49.300;2023-04-15T07:42:51;15.30;14.10
67559;DHT22;54388;53.536;49.300;2023-04-15T07:45:18;15.50;14.00
67559;DHT22;54388;53.536;49.300;2023-04-15T07:47:45;15.70;13.60
67559;DHT22;54388;53.536;49.300;2023-04-15T07:50:13;15.80;13.40
67559;DHT22;54388;53.536;49.300;2023-04-15T07:52:41;15.70;13.40
67559;DHT22;54388;53.536;49.300;2023-04-15T07:55:08;15.80;13.20
67559;DHT22;54388;53.536;49.300;2023-04-15T07:57:36;15.80;13.40
67559;DHT22;54388;53.536;49.300;2023-04-15T08:00:03;15.90;13.20
67559;DHT22;54388;53.536;49.300;2023-04-15T08:02:34;16.10;13.20
67559;DHT22;54388;53.536;49.300;2023-04-15T08:05:00;16.30;13.10
67559;DHT22;54388;53.536;49.300;2023-04-15T08:07:29;16.30;13.10
67559;DHT22;54388;53.536;49.300;2023-04-15T08:09:58;16.40;13.00
67559;DHT22;54388;53.536;49.300;2023-04-15T08:12:24;16.60;12.90
67559;DHT22;54388;53.536;49.300;2023-04-15T08:14:51;16.70;12.70
67559;DHT22;54388;53.536;49.300;2023-04-15T08:17:19;16.70;12.60
67559;DHT22;54388;53.536;49.300;2023-04-15T08:19:46;16.90;12.80
67559;DHT22;54388;53.536;49.300;2023-04-15T08:22:14;17.00;12.80
67559;DHT22;54388;53.536;49.300;2023-04-15T08:24:41;17.00;12.40
67559;DHT22;54388;53.536;49.300;2023-04-15T08:27:07;17.00;12.50
67559;DHT22;54388;53.536;49.300;2023-04-15T08:29:34;17.00;12.40
67559;DHT22;54388;53.536;49.300;2023-04-15T08:32:01;17.10;12.30
67559;DHT22;54388;53.536;49.300;2023-04-15T08:34:29;17.20;11.80
67559;DHT22;54388;53.536;49.300;2023-04-15T08:36:56;17.30;11.80
67559;DHT22;54388;53.536;49.300;2023-04-15T08:39:23;17.40;11.90
67559;DHT22;54388;53.536;49.300;2023-04-15T08:44:20;17.30;11.70
67559;DHT22;54388;53.536;49.300;2023-04-15T08:46:49;17.20;11.60
67559;DHT22;54388;53.536;49.300;2023-04-15T08:49:18;17.10;11.70
67559;DHT22;54388;53.536;49.300;2023-04-15T08:51:49;17.10;11.80
67559;DHT22;54388;53.536;49.300;2023-04-15T08:54:16;17.00;11.70
67559;DHT22;54388;53.536;49.300;2023-04-15T08:56:44;16.90;11.70
67559;DHT22;54388;53.536;49.300;2023-04-15T08:59:11;16.90;11.90
67559;DHT22;54388;53.536;49.300;2023-04-15T09:01:39;16.90;12.10
67559;DHT22;54388;53.536;49.300;2023-04-15T09:04:06;16.90;11.90
67559;DHT22;54388;53.536;49.300;2023-04-15T09:06:33;16.90;11.80
67559;DHT22;54388;53.536;49.300;2023-04-15T09:09:00;16.90;11.90
67559;DHT22;54388;53.536;49.300;2023-04-15T09:11:26;16.90;12.90
67559;DHT22;54388;53.536;49.300;2023-04-15T09:13:55;16.90;12.10
67559;DHT22;54388;53.536;49.300;2023-04-15T09:16:22;17.10;11.90
67559;DHT22;54388;53.536;49.300;2023-04-15T09:18:49;17.10;11.80
67559;DHT22;54388;53.536;49.300;2023-04-15T09:21:17;17.10;11.80
67559;DHT22;54388;53.536;49.300;2023-04-15T09:23:57;17.10;11.60
67559;DHT22;54388;53.536;49.300;2023-04-15T09:26:35;17.20;11.80
67559;DHT22;54388;53.536;49.300;2023-04-15T09:29:05;17.30;11.80
67559;DHT22;54388;53.536;49.300;2023-04-15T09:31:32;17.30;11.50
67559;DHT22;54388;53.536;49.300;2023-04-15T09:33:59;17.40;11.60
67559;DHT22;54388;53.536;49.300;2023-04-15T09:36:26;17.50;11.70
67559;DHT22;54388;53.536;49.300;2023-04-15T09:38:58;17.50;11.60
67559;DHT22;54388;53.536;49.300;2023-04-15T09:41:26;17.60;11.40
67559;DHT22;54388;53.536;49.300;2023-04-15T09:43:53;17.70;11.30
67559;DHT22;54388;53.536;49.300;2023-04-15T09:46:20;17.70;11.20
67559;DHT22;54388;53.536;49.300;2023-04-15T09:49:10;17.80;11.30
67559;DHT22;54388;53.536;49.300;2023-04-15T09:51:37;17.80;11.00
67559;DHT22;54388;53.536;49.300;2023-04-15T09:54:04;17.80;11.00
67559;DHT22;54388;53.536;49.300;2023-04-15T09:56:37;17.90;11.00
67559;DHT22;54388;53.536;49.300;2023-04-15T09:59:07;17.90;11.10
67559;DHT22;54388;53.536;49.300;2023-04-15T10:01:37;17.80;10.90
67559;DHT22;54388;53.536;49.300;2023-04-15T10:04:06;17.70;10.80
67559;DHT22;54388;53.536;49.300;2023-04-15T10:06:34;17.60;10.90
67559;DHT22;54388;53.536;49.300;2023-04-15T10:09:01;17.50;11.80
67559;DHT22;54388;53.536;49.300;2023-04-15T10:11:29;17.40;11.00
67559;DHT22;54388;53.536;49.300;2023-04-15T10:13:56;17.40;11.10
67559;DHT22;54388;53.536;49.300;2023-04-15T10:16:26;17.30;11.00
67559;DHT22;54388;53.536;49.300;2023-04-15T10:18:57;17.10;11.10
67559;DHT22;54388;53.536;49.300;2023-04-15T10:21:27;17.10;11.20
67559;DHT22;54388;53.536;49.300;2023-04-15T10:23:54;17.00;11.20
67559;DHT22;54388;53.536;49.300;2023-04-15T10:26:22;16.90;11.10
67559;DHT22;54388;53.536;49.300;2023-04-15T10:28:50;16.90;11.90
67559;DHT22;54388;53.536;49.300;2023-04-15T10:31:17;16.80;11.10
67559;DHT22;54388;53.536;49.300;2023-04-15T10:33:46;16.80;11.10
67559;DHT22;54388;53.536;49.300;2023-04-15T10:36:13;16.80;11.00
67559;DHT22;54388;53.536;49.300;2023-04-15T10:38:43;16.80;11.00
67559;DHT22;54388;53.536;49.300;2023-04-15T10:41:21;16.90;10.90
67559;DHT22;54388;53.536;49.300;2023-04-15T10:46:22;17.10;10.80
67559;DHT22;54388;53.536;49.300;2023-04-15T10:48:52;17.20;10.80
67559;DHT22;54388;53.536;49.300;2023-04-15T10:51:30;17.30;10.80
67559;DHT22;54388;53.536;49.300;2023-04-15T10:53:59;17.40;10.80
67559;DHT22;54388;53.536;49.300;2023-04-15T10:56:29;17.40;10.70
67559;DHT22;54388;53.536;49.300;2023-04-15T10:58:58;17.50;10.70
67559;DHT22;54388;53.536;49.300;2023-04-15T11:01:56;17.50;10.70
67559;DHT22;54388;53.536;49.300;2023-04-15T11:04:54;17.60;10.80
67559;DHT22;54388;53.536;49.300;2023-04-15T11:12:56;17.80;10.60
67559;DHT22;54388;53.536;49.300;2023-04-15T11:20:47;18.00;10.50
67559;DHT22;54388;53.536;49.300;2023-04-15T11:23:17;18.00;10.50
67559;DHT22;54388;53.536;49.300;2023-04-15T11:25:44;18.00;10.50
67559;DHT22;54388;53.536;49.300;2023-04-15T11:28:12;18.00;10.50
67559;DHT22;54388;53.536;49.300;2023-04-15T11:30:41;18.00;11.40
67559;DHT22;54388;53.536;49.300;2023-04-15T11:33:09;18.00;10.60
67559;DHT22;54388;53.536;49.300;2023-04-15T11:35:37;18.00;10.50
67559;DHT22;54388;53.536;49.300;2023-04-15T11:38:11;18.10;10.50
67559;DHT22;54388;53.536;49.300;2023-04-15T11:40:39;18.00;10.40
67559;DHT22;54388;53.536;49.300;2023-04-15T11:43:11;18.10;10.50
67559;DHT22;54388;53.536;49.300;2023-04-15T11:48:14;18.20;10.50
67559;DHT22;54388;53.536;49.300;2023-04-15T11:50:41;18.40;10.60
67559;DHT22;54388;53.536;49.300;2023-04-15T11:53:10;18.60;10.80
67559;DHT22;54388;53.536;49.300;2023-04-15T11:55:48;18.80;10.80
67559;DHT22;54388;53.536;49.300;2023-04-15T11:58:19;19.10;10.80
67559;DHT22;54388;53.536;49.300;2023-04-15T12:00:54;19.30;10.70
67559;DHT22;54388;53.536;49.300;2023-04-15T12:03:26;19.60;10.70
67559;DHT22;54388;53.536;49.300;2023-04-15T12:06:18;19.90;10.70
67559;DHT22;54388;53.536;49.300;2023-04-15T12:11:48;20.30;10.00
67559;DHT22;54388;53.536;49.300;2023-04-15T12:16:46;20.70;9.90
67559;DHT22;54388;53.536;49.300;2023-04-15T12:19:37;20.80;10.00
67559;DHT22;54388;53.536;49.300;2023-04-15T12:22:12;21.00;10.10
67559;DHT22;54388;53.536;49.300;2023-04-15T12:24:40;21.10;9.80
67559;DHT22;54388;53.536;49.300;2023-04-15T12:27:09;21.20;9.70
67559;DHT22;54388;53.536;49.300;2023-04-15T12:29:38;21.40;9.70
67559;DHT22;54388;53.536;49.300;2023-04-15T12:32:05;21.50;9.70
67559;DHT22;54388;53.536;49.300;2023-04-15T12:34:35;21.60;9.70
67559;DHT22;54388;53.536;49.300;2023-04-15T12:37:10;21.70;9.60
67559;DHT22;54388;53.536;49.300;2023-04-15T12:39:41;21.70;9.50
67559;DHT22;54388;53.536;49.300;2023-04-15T12:42:09;21.70;9.60
67559;DHT22;54388;53.536;49.300;2023-04-15T12:44:37;21.70;9.60
67559;DHT22;54388;53.536;49.300;2023-04-15T12:47:04;21.70;9.60
67559;DHT22;54388;53.536;49.300;2023-04-15T12:49:32;21.60;9.70
67559;DHT22;54388;53.536;49.300;2023-04-15T12:52:00;21.60;9.50
67559;DHT22;54388;53.536;49.300;2023-04-15T12:54:28;21.50;9.50
67559;DHT22;54388;53.536;49.300;2023-04-15T12:56:54;21.40;9.40
67559;DHT22;54388;53.536;49.300;2023-04-15T12:59:21;21.10;9.50
67559;DHT22;54388;53.536;49.300;2023-04-15T13:01:50;21.00;9.60
67559;DHT22;54388;53.536;49.300;2023-04-15T13:04:18;20.90;9.60
67559;DHT22;54388;53.536;49.300;2023-04-15T13:06:46;20.80;9.60
67559;DHT22;54388;53.536;49.300;2023-04-15T13:09:12;20.70;9.60
67559;DHT22;54388;53.536;49.300;2023-04-15T13:11:39;20.60;9.60
67559;DHT22;54388;53.536;49.300;2023-04-15T13:14:07;20.40;9.60
67559;DHT22;54388;53.536;49.300;2023-04-15T13:16:35;20.20;9.50
67559;DHT22;54388;53.536;49.300;2023-04-15T13:19:02;20.10;9.50
67559;DHT22;54388;53.536;49.300;2023-04-15T13:21:29;19.90;9.50
67559;DHT22;54388;53.536;49.300;2023-04-15T13:24:00;19.90;9.60
67559;DHT22;54388;53.536;49.300;2023-04-15T13:26:27;19.90;9.60
67559;DHT22;54388;53.536;49.300;2023-04-15T13:28:54;19.90;9.60
67559;DHT22;54388;53.536;49.300;2023-04-15T13:31:21;19.80;9.50
67559;DHT22;54388;53.536;49.300;2023-04-15T13:33:48;19.80;9.50
67559;DHT22;54388;53.536;49.300;2023-04-15T13:36:14;19.80;9.50
67559;DHT22;54388;53.536;49.300;2023-04-15T13:38:41;19.80;9.50
67559;DHT22;54388;53.536;49.300;2023-04-15T13:41:08;19.80;9.40
67559;DHT22;54388;53.536;49.300;2023-04-15T13:43:34;19.70;9.30
67559;DHT22;54388;53.536;49.300;2023-04-15T13:46:01;19.70;9.30
67559;DHT22;54388;53.536;49.300;2023-04-15T13:48:28;19.70;9.30
67559;DHT22;54388;53.536;49.300;2023-04-15T13:50:55;19.70;9.30
67559;DHT22;54388;53.536;49.300;2023-04-15T13:53:21;19.60;9.30
67559;DHT22;54388;53.536;49.300;2023-04-15T13:55:48;19.70;9.40
67559;DHT22;54388;53.536;49.300;2023-04-15T13:58:15;19.70;9.40
67559;DHT22;54388;53.536;49.300;2023-04-15T14:00:41;19.70;9.50
67559;DHT22;54388;53.536;49.300;2023-04-15T14:03:09;19.70;9.50
67559;DHT22;54388;53.536;49.300;2023-04-15T14:05:36;19.70;9.50
67559;DHT22;54388;53.536;49.300;2023-04-15T14:08:02;19.70;9.50
67559;DHT22;54388;53.536;49.300;2023-04-15T14:10:29;19.70;9.50
67559;DHT22;54388;53.536;49.300;2023-04-15T14:12:56;19.70;9.50
67559;DHT22;54388;53.536;49.300;2023-04-15T14:15:22;19.70;9.50
67559;DHT22;54388;53.536;49.300;2023-04-15T14:17:49;19.70;9.50
67559;DHT22;54388;53.536;49.300;2023-04-15T14:20:16;19.70;9.60
67559;DHT22;54388;53.536;49.300;2023-04-15T14:22:42;19.70;9.60
67559;DHT22;54388;53.536;49.300;2023-04-15T14:25:09;19.70;9.50
67559;DHT22;54388;53.536;49.300;2023-04-15T14:27:35;19.70;9.40
67559;DHT22;54388;53.536;49.300;2023-04-15T14:30:02;19.80;9.50
67559;DHT22;54388;53.536;49.300;2023-04-15T14:32:29;19.90;9.40
67559;DHT22;54388;53.536;49.300;2023-04-15T14:34:56;19.90;9.40
67559;DHT22;54388;53.536;49.300;2023-04-15T14:37:22;19.90;9.40
67559;DHT22;54388;53.536;49.300;2023-04-15T14:39:49;19.90;9.50
67559;DHT22;54388;53.536;49.300;2023-04-15T14:42:17;19.90;9.40
67559;DHT22;54388;53.536;49.300;2023-04-15T14:44:46;19.90;9.50
67559;DHT22;54388;53.536;49.300;2023-04-15T14:47:15;20.00;9.60
67559;DHT22;54388;53.536;49.300;2023-04-15T14:49:42;20.00;9.50
67559;DHT22;54388;53.536;49.300;2023-04-15T14:52:09;20.00;9.50
67559;DHT22;54388;53.536;49.300;2023-04-15T14:54:36;20.00;9.50
67559;DHT22;54388;53.536;49.300;2023-04-15T14:57:02;20.10;9.60
67559;DHT22;54388;53.536;49.300;2023-04-15T14:59:29;20.10;9.60
67559;DHT22;54388;53.536;49.300;2023-04-15T15:01:56;20.10;9.60
67559;DHT22;54388;53.536;49.300;2023-04-15T15:04:23;20.10;9.60
67559;DHT22;54388;53.536;49.300;2023-04-15T15:06:49;20.10;9.70
67559;DHT22;54388;53.536;49.300;2023-04-15T15:09:16;20.20;9.70
67559;DHT22;54388;53.536;49.300;2023-04-15T15:11:44;20.20;9.70
67559;DHT22;54388;53.536;49.300;2023-04-15T15:14:11;20.10;9.70
67559;DHT22;54388;53.536;49.300;2023-04-15T15:16:37;20.00;9.80
67559;DHT22;54388;53.536;49.300;2023-04-15T15:19:04;19.90;9.90
67559;DHT22;54388;53.536;49.300;2023-04-15T15:21:31;19.70;9.80
67559;DHT22;54388;53.536;49.300;2023-04-15T15:23:57;19.60;9.90
67559;DHT22;54388;53.536;49.300;2023-04-15T15:26:24;19.50;9.90
67559;DHT22;54388;53.536;49.300;2023-04-15T15:28:50;19.30;10.00
67559;DHT22;54388;53.536;49.300;2023-04-15T15:31:17;19.10;10.10
67559;DHT22;54388;53.536;49.300;2023-04-15T15:33:44;19.00;10.20
67559;DHT22;54388;53.536;49.300;2023-04-15T15:36:10;18.80;10.30
67559;DHT22;54388;53.536;49.300;2023-04-15T15:38:37;18.60;10.40
67559;DHT22;54388;53.536;49.300;2023-04-15T15:41:05;18.50;10.50
67559;DHT22;54388;53.536;49.300;2023-04-15T15:43:32;18.30;10.60
67559;DHT22;54388;53.536;49.300;2023-04-15T15:45:59;18.10;10.70
67559;DHT22;54388;53.536;49.300;2023-04-15T15:48:26;17.90;10.90
67559;DHT22;54388;53.536;49.300;2023-04-15T15:50:52;17.70;11.00
67559;DHT22;54388;53.536;49.300;2023-04-15T15:53:19;17.50;11.20
67559;DHT22;54388;53.536;49.300;2023-04-15T15:55:46;17.30;11.30